Schoonebeek, Netherlands
Current Conditions -  °F | °C
As of 1:25 AM on Tuesday 25 Nov 2014 (Local Time) from EHGG Reporting Station
Moderate Fog Moderate Fog  
Wind Chill: 34°   Ceiling: Unl
Heat Index: 34°   Visibility: 0.25mi
Dew Point: 34°   Wind: 2mph
Humidity: 100%   Direction: 240°WSW
Pressure: 30.3"   Gusts: NA
Location:  52.66°N, 6.88°E
Report Text: EHGG 250025Z AUTO 24002KT 0400 R23/0550 FG FEW000 01/01 Q1026
Loading
Personal Weather Stations






























Interactive Weather Map New forecast layout! Learn more

10-Day Weather Forecast

Advertisements
Track Severe Weather on mobile